Burkeville, VA (23922)

2:53 AM EST on February 11, 2016 (GMT -0500)
Far West End | | Change Station
CLOSE
Current Station
Personal Weather Station
Location: Crewe, VA
Elevation: 502 ft
Nearby Weather Stations

Elev 502 ft 37.19 °N, 78.14 °W | Updated 2 minutes ago

Clear
Clear
22.1 °F
Feels Like 22 °F
N
1.0
Wind Variable Wind from WSW
Gusts 1.0 mph

Today
High -- | Low -- °F
--% Chance of Precip.
Yesterday
High -- | Low -- °F
Precip. -- in
Pressure 30.03 in
Visibility 10.0 miles
Clouds Clear
Windchill 22 °F
Dew Point 10 °F
Humidity 59%
Rainfall 0.00 in
Snow Depth Not available.
7:06 AM 5:47 PM
Waxing Crescent, 10% visible
METAR KFVX 110735Z AUTO 27004KT 10SM CLR M05/M16 A3003 RMK AO2 T10501163
Pressure 30.03 in
Visibility 10.0 miles
Clouds Clear
Windchill 22 °F
Dew Point 10 °F
Humidity 59%
Rainfall 0.00 in
Snow Depth Not available.
7:06 AM 5:47 PM
Waxing Crescent, 10% visible
METAR KFVX 110735Z AUTO 27004KT 10SM CLR M05/M16 A3003 RMK AO2 T10501163

10-Day Weather Forecast

Almanac

Astronomy

Feb. 11, 2016 Rise Set
Actual Time
Civil Twilight
Nautical Twilight
Astronomical Twilight
Moon
Length of Visible Light
Length of Day
Tomorrow will be .
, % of the Moon is Illuminated

Today's Extremes

State Highs State Lows

Community

WunderPhotos

Upload Photos

1,892,030 photos uploaded!

WunderBlog® & News

Nearby

Air Quality

  Air Quality AQ Index Pollutant
Not available.

Snow Depth

Station Depth Elevation

Earthquake Activity

City Distance Mag. Time & Date
Minimum magnitude displayed is 2.5.

Coastal Water Temperatures

Place Temperature

Stations

Nearby Weather Stations

Station Location Temp. Windchill Dew Point Humidity Wind Precip. Elev Updated Type
                   

Watches & Warnings

There are currently no watches in effect.